Aviation Digital Data Service (ADDS)

Output produced by METARs form (0529 UTC 19 March 2019)
found at http://www.aviationweather.gov/metar/data/
 
Forecast for: UGTB (TBILISI/NOVO-AL , GE)
Text: TAF UGTB 190500Z 1906/2006 31015KT 9999 SCT040CB TX10/1911Z TN04/2002Z
Forecast period: 0600 to 1300 UTC 19 March 2019
Forecast type: FROM: standard forecast or significant change
Winds: from the NW (310 degrees) at 17 MPH (15 knots; 7.7 m/s)
Visibility: 6 or more miles 10+ km)
Ceiling: at least 12,000 feet AGL
Clouds: scattered clouds at 4000 feet AGL
Weather: no significant weather forecast for this period
Text: BECMG 1913/1915 VRB02KT
Forecast period: 1300 UTC 19 March 2019 to 0600 UTC 20 March 2019
Forecast type: BECOMING: Conditions expected to become as follows by 1500 UTC 19 March 2019
Winds: variable direction winds at 2 MPH (2 knots; 1.0 m/s)
Visibility: 6 or more miles 10+ km)
Ceiling: at least 12,000 feet AGL
Clouds: scattered clouds at 4000 feet AGL
Weather: no significant weather forecast for this period